sensor_id;sensor_type;location;lat;lon;timestamp;pressure;altitude;pressure_sealevel;temperature;humidity
2339;BME280;1180;51.438;6.978;2023-06-19T00:00:37;99569.28;;;26.92;52.05
2339;BME280;1180;51.438;6.978;2023-06-19T00:03:04;99564.25;;;26.90;51.99
2339;BME280;1180;51.438;6.978;2023-06-19T00:05:31;99572.59;;;26.87;52.17
2339;BME280;1180;51.438;6.978;2023-06-19T00:07:56;99558.63;;;26.80;52.17
2339;BME280;1180;51.438;6.978;2023-06-19T00:10:21;99558.41;;;26.81;52.57
2339;BME280;1180;51.438;6.978;2023-06-19T00:12:47;99558.69;;;26.73;52.90
2339;BME280;1180;51.438;6.978;2023-06-19T00:15:13;99553.44;;;26.73;52.87
2339;BME280;1180;51.438;6.978;2023-06-19T00:17:38;99555.69;;;26.70;53.02
2339;BME280;1180;51.438;6.978;2023-06-19T00:20:04;99558.31;;;26.70;53.11
2339;BME280;1180;51.438;6.978;2023-06-19T00:22:33;99557.31;;;26.64;52.90
2339;BME280;1180;51.438;6.978;2023-06-19T00:24:58;99566.03;;;26.64;53.18
2339;BME280;1180;51.438;6.978;2023-06-19T00:27:23;99566.63;;;26.66;53.28
2339;BME280;1180;51.438;6.978;2023-06-19T00:29:51;99558.03;;;26.52;53.10
2339;BME280;1180;51.438;6.978;2023-06-19T00:32:17;99559.25;;;26.50;53.56
2339;BME280;1180;51.438;6.978;2023-06-19T00:34:42;99558.47;;;26.49;53.70
2339;BME280;1180;51.438;6.978;2023-06-19T00:37:09;99571.59;;;26.49;53.91
2339;BME280;1180;51.438;6.978;2023-06-19T00:39:35;99573.41;;;26.49;53.92
2339;BME280;1180;51.438;6.978;2023-06-19T00:42:00;99569.59;;;26.45;53.79
2339;BME280;1180;51.438;6.978;2023-06-19T00:44:26;99566.63;;;26.41;53.74
2339;BME280;1180;51.438;6.978;2023-06-19T00:46:56;99574.56;;;26.28;54.33
2339;BME280;1180;51.438;6.978;2023-06-19T00:49:22;99573.56;;;26.29;53.86
2339;BME280;1180;51.438;6.978;2023-06-19T00:51:47;99574.81;;;26.26;54.51
2339;BME280;1180;51.438;6.978;2023-06-19T00:54:14;99580.06;;;26.26;54.39
2339;BME280;1180;51.438;6.978;2023-06-19T00:56:40;99579.69;;;26.16;54.97
2339;BME280;1180;51.438;6.978;2023-06-19T00:59:08;99583.94;;;26.17;54.45
2339;BME280;1180;51.438;6.978;2023-06-19T01:01:36;99585.16;;;26.21;54.59
2339;BME280;1180;51.438;6.978;2023-06-19T01:04:01;99589.56;;;26.27;54.47
2339;BME280;1180;51.438;6.978;2023-06-19T01:06:31;99593.22;;;26.26;54.65
2339;BME280;1180;51.438;6.978;2023-06-19T01:09:05;99585.94;;;26.21;54.99
2339;BME280;1180;51.438;6.978;2023-06-19T01:11:39;99586.00;;;26.01;55.15
2339;BME280;1180;51.438;6.978;2023-06-19T01:14:18;99585.59;;;26.04;55.09
2339;BME280;1180;51.438;6.978;2023-06-19T01:16:45;99583.22;;;25.96;55.09
2339;BME280;1180;51.438;6.978;2023-06-19T01:19:17;99586.03;;;25.94;55.26
2339;BME280;1180;51.438;6.978;2023-06-19T01:21:44;99591.06;;;26.03;55.53
2339;BME280;1180;51.438;6.978;2023-06-19T01:24:10;99591.44;;;26.06;55.27
2339;BME280;1180;51.438;6.978;2023-06-19T01:26:35;99586.41;;;26.05;55.74
2339;BME280;1180;51.438;6.978;2023-06-19T01:29:01;99585.63;;;25.98;55.96
2339;BME280;1180;51.438;6.978;2023-06-19T01:31:50;99577.13;;;25.95;55.74
2339;BME280;1180;51.438;6.978;2023-06-19T01:34:21;99569.72;;;25.86;56.39
2339;BME280;1180;51.438;6.978;2023-06-19T01:36:48;99566.25;;;25.85;56.58
2339;BME280;1180;51.438;6.978;2023-06-19T01:39:18;99565.28;;;25.79;56.55
2339;BME280;1180;51.438;6.978;2023-06-19T01:41:46;99573.56;;;25.76;56.55
2339;BME280;1180;51.438;6.978;2023-06-19T01:44:14;99563.28;;;25.75;56.74
2339;BME280;1180;51.438;6.978;2023-06-19T01:46:41;99566.53;;;25.70;56.44
2339;BME280;1180;51.438;6.978;2023-06-19T01:49:08;99570.16;;;25.69;56.56
2339;BME280;1180;51.438;6.978;2023-06-19T01:51:36;99561.69;;;25.67;56.26
2339;BME280;1180;51.438;6.978;2023-06-19T01:54:03;99556.00;;;25.70;56.12
2339;BME280;1180;51.438;6.978;2023-06-19T01:56:30;99562.47;;;25.67;56.05
2339;BME280;1180;51.438;6.978;2023-06-19T01:58:56;99561.50;;;25.62;56.01
2339;BME280;1180;51.438;6.978;2023-06-19T02:01:22;99563.53;;;25.60;55.61
2339;BME280;1180;51.438;6.978;2023-06-19T02:03:47;99562.53;;;25.61;55.94
2339;BME280;1180;51.438;6.978;2023-06-19T02:06:13;99568.38;;;25.63;55.77
2339;BME280;1180;51.438;6.978;2023-06-19T02:08:39;99562.53;;;25.61;55.54
2339;BME280;1180;51.438;6.978;2023-06-19T02:11:05;99568.56;;;25.61;55.60
2339;BME280;1180;51.438;6.978;2023-06-19T02:13:31;99574.47;;;25.57;55.65
2339;BME280;1180;51.438;6.978;2023-06-19T02:15:56;99584.75;;;25.58;55.49
2339;BME280;1180;51.438;6.978;2023-06-19T02:18:23;99587.19;;;25.60;55.65
2339;BME280;1180;51.438;6.978;2023-06-19T02:20:49;99596.44;;;25.62;56.17
2339;BME280;1180;51.438;6.978;2023-06-19T02:23:15;99597.50;;;25.55;56.52
2339;BME280;1180;51.438;6.978;2023-06-19T02:25:41;99592.44;;;25.53;56.84
2339;BME280;1180;51.438;6.978;2023-06-19T02:28:06;99606.00;;;25.57;57.25
2339;BME280;1180;51.438;6.978;2023-06-19T02:30:32;99607.00;;;25.56;56.88
2339;BME280;1180;51.438;6.978;2023-06-19T02:32:58;99609.41;;;25.50;57.25
2339;BME280;1180;51.438;6.978;2023-06-19T02:35:24;99610.22;;;25.44;57.27
2339;BME280;1180;51.438;6.978;2023-06-19T02:37:49;99621.53;;;25.38;57.49
2339;BME280;1180;51.438;6.978;2023-06-19T02:40:15;99627.59;;;25.32;57.41
2339;BME280;1180;51.438;6.978;2023-06-19T02:42:42;99624.38;;;25.36;57.22
2339;BME280;1180;51.438;6.978;2023-06-19T02:45:09;99635.28;;;25.40;57.02
2339;BME280;1180;51.438;6.978;2023-06-19T02:47:35;99639.91;;;25.38;57.21
2339;BME280;1180;51.438;6.978;2023-06-19T02:50:02;99645.41;;;25.36;57.10
2339;BME280;1180;51.438;6.978;2023-06-19T02:52:29;99651.03;;;25.33;57.58
2339;BME280;1180;51.438;6.978;2023-06-19T02:54:55;99665.59;;;25.36;57.80
2339;BME280;1180;51.438;6.978;2023-06-19T02:57:21;99662.94;;;25.29;58.11
2339;BME280;1180;51.438;6.978;2023-06-19T02:59:47;99667.00;;;25.25;58.40
2339;BME280;1180;51.438;6.978;2023-06-19T03:02:12;99680.53;;;25.29;58.59
2339;BME280;1180;51.438;6.978;2023-06-19T03:04:39;99673.25;;;25.24;59.19
2339;BME280;1180;51.438;6.978;2023-06-19T03:07:05;99671.63;;;25.23;59.16
2339;BME280;1180;51.438;6.978;2023-06-19T03:09:31;99682.75;;;25.32;59.58
2339;BME280;1180;51.438;6.978;2023-06-19T03:11:56;99681.13;;;25.24;59.70
2339;BME280;1180;51.438;6.978;2023-06-19T03:14:22;99692.03;;;25.21;60.25
2339;BME280;1180;51.438;6.978;2023-06-19T03:16:48;99694.88;;;25.13;61.00
2339;BME280;1180;51.438;6.978;2023-06-19T03:19:13;99687.00;;;25.13;59.99
2339;BME280;1180;51.438;6.978;2023-06-19T03:21:38;99694.25;;;25.24;59.15
2339;BME280;1180;51.438;6.978;2023-06-19T03:24:04;99696.69;;;25.39;58.61
2339;BME280;1180;51.438;6.978;2023-06-19T03:26:31;99701.13;;;25.45;59.04
2339;BME280;1180;51.438;6.978;2023-06-19T03:28:57;99698.94;;;25.56;59.60
2339;BME280;1180;51.438;6.978;2023-06-19T03:31:22;99706.00;;;25.62;59.62
2339;BME280;1180;51.438;6.978;2023-06-19T03:33:48;99701.97;;;25.66;59.34
2339;BME280;1180;51.438;6.978;2023-06-19T03:36:13;99706.81;;;25.69;58.81
2339;BME280;1180;51.438;6.978;2023-06-19T03:38:39;99705.19;;;25.75;58.99
2339;BME280;1180;51.438;6.978;2023-06-19T03:41:04;99700.31;;;25.78;59.69
2339;BME280;1180;51.438;6.978;2023-06-19T03:43:30;99709.22;;;25.84;58.84
2339;BME280;1180;51.438;6.978;2023-06-19T03:45:55;99710.41;;;25.81;59.49
2339;BME280;1180;51.438;6.978;2023-06-19T03:48:21;99713.25;;;25.80;59.92
2339;BME280;1180;51.438;6.978;2023-06-19T03:50:46;99715.66;;;25.81;60.02
2339;BME280;1180;51.438;6.978;2023-06-19T03:53:12;99727.00;;;25.82;60.09
2339;BME280;1180;51.438;6.978;2023-06-19T03:55:38;99713.44;;;25.85;59.96
2339;BME280;1180;51.438;6.978;2023-06-19T03:58:03;99722.94;;;25.86;60.33
2339;BME280;1180;51.438;6.978;2023-06-19T04:00:31;99726.19;;;25.81;60.47
2339;BME280;1180;51.438;6.978;2023-06-19T04:02:57;99745.00;;;25.78;60.52
2339;BME280;1180;51.438;6.978;2023-06-19T04:05:23;99746.81;;;25.78;60.81
2339;BME280;1180;51.438;6.978;2023-06-19T04:07:52;99734.88;;;25.75;61.27
2339;BME280;1180;51.438;6.978;2023-06-19T04:10:18;99743.59;;;25.76;61.70
2339;BME280;1180;51.438;6.978;2023-06-19T04:12:44;99740.16;;;25.62;61.85
2339;BME280;1180;51.438;6.978;2023-06-19T04:15:10;99745.19;;;25.63;62.54
2339;BME280;1180;51.438;6.978;2023-06-19T04:17:37;99752.09;;;25.58;62.73
2339;BME280;1180;51.438;6.978;2023-06-19T04:20:06;99759.75;;;25.59;62.26
2339;BME280;1180;51.438;6.978;2023-06-19T04:22:38;99766.44;;;25.62;62.85
2339;BME280;1180;51.438;6.978;2023-06-19T04:25:06;99777.94;;;25.67;62.68
2339;BME280;1180;51.438;6.978;2023-06-19T04:27:33;99775.94;;;25.63;62.96
2339;BME280;1180;51.438;6.978;2023-06-19T04:29:59;99776.34;;;25.60;62.92
2339;BME280;1180;51.438;6.978;2023-06-19T04:32:24;99778.38;;;25.58;63.34
2339;BME280;1180;51.438;6.978;2023-06-19T04:34:50;99782.22;;;25.62;63.39
2339;BME280;1180;51.438;6.978;2023-06-19T04:37:16;99789.25;;;25.61;63.32
2339;BME280;1180;51.438;6.978;2023-06-19T04:39:45;99792.50;;;25.63;63.18
2339;BME280;1180;51.438;6.978;2023-06-19T04:42:13;99793.31;;;25.57;63.58
2339;BME280;1180;51.438;6.978;2023-06-19T04:44:46;99799.78;;;25.55;63.85
2339;BME280;1180;51.438;6.978;2023-06-19T04:47:12;99805.22;;;25.53;64.06
2339;BME280;1180;51.438;6.978;2023-06-19T04:49:38;99802.41;;;25.48;64.38
2339;BME280;1180;51.438;6.978;2023-06-19T04:52:04;99798.72;;;25.42;64.32
2339;BME280;1180;51.438;6.978;2023-06-19T04:54:30;99806.59;;;25.42;64.61
2339;BME280;1180;51.438;6.978;2023-06-19T04:56:58;99807.03;;;25.46;63.99
2339;BME280;1180;51.438;6.978;2023-06-19T04:59:24;99811.25;;;25.40;64.45
2339;BME280;1180;51.438;6.978;2023-06-19T05:01:51;99818.53;;;25.45;64.38
2339;BME280;1180;51.438;6.978;2023-06-19T05:04:20;99814.28;;;25.44;64.14
2339;BME280;1180;51.438;6.978;2023-06-19T05:06:48;99820.53;;;25.36;64.77
2339;BME280;1180;51.438;6.978;2023-06-19T05:09:15;99822.34;;;25.35;65.24
2339;BME280;1180;51.438;6.978;2023-06-19T05:11:41;99821.13;;;25.31;65.87
2339;BME280;1180;51.438;6.978;2023-06-19T05:14:09;99827.59;;;25.29;65.68
2339;BME280;1180;51.438;6.978;2023-06-19T05:16:37;99830.84;;;25.31;65.59
2339;BME280;1180;51.438;6.978;2023-06-19T05:19:04;99832.03;;;25.35;65.62
2339;BME280;1180;51.438;6.978;2023-06-19T05:21:30;99830.44;;;25.34;65.72
2339;BME280;1180;51.438;6.978;2023-06-19T05:23:56;99830.63;;;25.39;65.23
2339;BME280;1180;51.438;6.978;2023-06-19T05:26:22;99830.03;;;25.37;65.79
2339;BME280;1180;51.438;6.978;2023-06-19T05:28:49;99838.13;;;25.42;65.37
2339;BME280;1180;51.438;6.978;2023-06-19T05:31:15;99839.19;;;25.48;65.59
2339;BME280;1180;51.438;6.978;2023-06-19T05:33:41;99838.34;;;25.47;65.95
2339;BME280;1180;51.438;6.978;2023-06-19T05:36:07;99832.69;;;25.50;65.76
2339;BME280;1180;51.438;6.978;2023-06-19T05:38:32;99836.75;;;25.53;65.91
2339;BME280;1180;51.438;6.978;2023-06-19T05:40:58;99836.34;;;25.49;66.08
2339;BME280;1180;51.438;6.978;2023-06-19T05:43:24;99835.31;;;25.50;66.42
2339;BME280;1180;51.438;6.978;2023-06-19T05:45:55;99838.78;;;25.51;66.58
2339;BME280;1180;51.438;6.978;2023-06-19T05:48:27;99842.81;;;25.47;66.30
2339;BME280;1180;51.438;6.978;2023-06-19T05:50:52;99846.03;;;25.49;65.58
2339;BME280;1180;51.438;6.978;2023-06-19T05:53:18;99849.47;;;25.49;65.64
2339;BME280;1180;51.438;6.978;2023-06-19T05:55:43;99853.94;;;25.49;66.39
2339;BME280;1180;51.438;6.978;2023-06-19T05:58:09;99850.84;;;25.45;67.28
2339;BME280;1180;51.438;6.978;2023-06-19T06:00:34;99852.31;;;25.48;66.54
2339;BME280;1180;51.438;6.978;2023-06-19T06:03:00;99847.66;;;25.50;66.48
2339;BME280;1180;51.438;6.978;2023-06-19T06:05:28;99848.47;;;25.50;66.55
2339;BME280;1180;51.438;6.978;2023-06-19T06:07:57;99856.34;;;25.50;66.40
2339;BME280;1180;51.438;6.978;2023-06-19T06:10:25;99857.75;;;25.46;66.83
2339;BME280;1180;51.438;6.978;2023-06-19T06:12:52;99865.00;;;25.44;67.32
2339;BME280;1180;51.438;6.978;2023-06-19T06:15:21;99870.44;;;25.36;66.96
2339;BME280;1180;51.438;6.978;2023-06-19T06:17:49;99877.50;;;25.35;67.44
2339;BME280;1180;51.438;6.978;2023-06-19T06:20:16;99870.00;;;25.32;67.71
2339;BME280;1180;51.438;6.978;2023-06-19T06:22:43;99867.59;;;25.31;68.18
2339;BME280;1180;51.438;6.978;2023-06-19T06:25:09;99875.69;;;25.36;68.55
2339;BME280;1180;51.438;6.978;2023-06-19T06:27:36;99873.66;;;25.31;67.74
2339;BME280;1180;51.438;6.978;2023-06-19T06:30:03;99882.56;;;25.37;67.81
2339;BME280;1180;51.438;6.978;2023-06-19T06:32:31;99883.56;;;25.36;68.27
2339;BME280;1180;51.438;6.978;2023-06-19T06:34:57;99881.34;;;25.33;68.42
2339;BME280;1180;51.438;6.978;2023-06-19T06:37:25;99888.41;;;25.32;68.29
2339;BME280;1180;51.438;6.978;2023-06-19T06:39:52;99878.72;;;25.33;68.37
2339;BME280;1180;51.438;6.978;2023-06-19T06:42:18;99881.34;;;25.33;68.32
2339;BME280;1180;51.438;6.978;2023-06-19T06:44:44;99885.91;;;25.17;69.09
2339;BME280;1180;51.438;6.978;2023-06-19T06:47:11;99884.66;;;25.00;69.89
2339;BME280;1180;51.438;6.978;2023-06-19T06:49:37;99884.56;;;24.79;70.28
2339;BME280;1180;51.438;6.978;2023-06-19T06:52:04;99881.44;;;24.69;71.54
2339;BME280;1180;51.438;6.978;2023-06-19T06:54:29;99888.38;;;24.77;71.77
2339;BME280;1180;51.438;6.978;2023-06-19T06:56:54;99891.03;;;24.84;71.30
2339;BME280;1180;51.438;6.978;2023-06-19T06:59:26;99898.69;;;24.85;71.00
2339;BME280;1180;51.438;6.978;2023-06-19T07:01:52;99893.44;;;24.85;71.62
2339;BME280;1180;51.438;6.978;2023-06-19T07:04:18;99907.00;;;24.89;71.83
2339;BME280;1180;51.438;6.978;2023-06-19T07:06:44;99906.56;;;24.78;72.07
2339;BME280;1180;51.438;6.978;2023-06-19T07:09:10;99908.31;;;24.71;72.25
2339;BME280;1180;51.438;6.978;2023-06-19T07:11:35;99915.31;;;24.64;72.86
2339;BME280;1180;51.438;6.978;2023-06-19T07:14:02;99921.25;;;24.44;73.86
2339;BME280;1180;51.438;6.978;2023-06-19T07:16:28;99924.56;;;24.31;74.89
2339;BME280;1180;51.438;6.978;2023-06-19T07:18:53;99924.25;;;24.19;76.17
2339;BME280;1180;51.438;6.978;2023-06-19T07:21:19;99934.00;;;24.26;76.18
2339;BME280;1180;51.438;6.978;2023-06-19T07:23:45;99936.47;;;24.34;76.21
2339;BME280;1180;51.438;6.978;2023-06-19T07:26:14;99936.13;;;24.37;75.81
2339;BME280;1180;51.438;6.978;2023-06-19T07:28:40;99935.91;;;24.38;76.09
2339;BME280;1180;51.438;6.978;2023-06-19T07:31:06;99942.84;;;24.25;77.04
2339;BME280;1180;51.438;6.978;2023-06-19T07:33:31;99945.78;;;24.15;78.33
2339;BME280;1180;51.438;6.978;2023-06-19T07:35:57;99949.16;;;24.08;80.38
2339;BME280;1180;51.438;6.978;2023-06-19T07:38:23;99949.16;;;24.08;80.78
2339;BME280;1180;51.438;6.978;2023-06-19T07:40:48;99950.28;;;23.99;81.02
2339;BME280;1180;51.438;6.978;2023-06-19T07:43:14;99949.38;;;24.07;81.65
2339;BME280;1180;51.438;6.978;2023-06-19T07:45:39;99956.66;;;24.12;81.63
2339;BME280;1180;51.438;6.978;2023-06-19T07:48:05;99951.16;;;24.06;80.13
2339;BME280;1180;51.438;6.978;2023-06-19T07:50:30;99956.66;;;24.12;79.73
2339;BME280;1180;51.438;6.978;2023-06-19T07:52:57;99946.63;;;24.15;78.29
2339;BME280;1180;51.438;6.978;2023-06-19T07:55:22;99946.00;;;24.13;77.95
2339;BME280;1180;51.438;6.978;2023-06-19T07:57:47;99949.66;;;24.19;77.50
2339;BME280;1180;51.438;6.978;2023-06-19T08:00:13;99950.88;;;24.16;77.83
2339;BME280;1180;51.438;6.978;2023-06-19T08:02:40;99947.94;;;24.26;76.94
2339;BME280;1180;51.438;6.978;2023-06-19T08:05:06;99950.22;;;24.36;77.19
2339;BME280;1180;51.438;6.978;2023-06-19T08:07:33;99952.72;;;24.44;75.45
2339;BME280;1180;51.438;6.978;2023-06-19T08:09:58;99958.84;;;24.30;76.85
2339;BME280;1180;51.438;6.978;2023-06-19T08:12:23;99955.56;;;24.21;76.31
2339;BME280;1180;51.438;6.978;2023-06-19T08:14:49;99953.66;;;24.15;77.08
2339;BME280;1180;51.438;6.978;2023-06-19T08:17:14;99962.03;;;24.25;77.67
2339;BME280;1180;51.438;6.978;2023-06-19T08:19:39;99958.91;;;24.15;78.19
2339;BME280;1180;51.438;6.978;2023-06-19T08:22:05;99965.72;;;24.09;79.34
2339;BME280;1180;51.438;6.978;2023-06-19T08:24:31;99955.69;;;23.98;78.83
2339;BME280;1180;51.438;6.978;2023-06-19T08:26:56;99955.03;;;24.11;78.29
2339;BME280;1180;51.438;6.978;2023-06-19T08:29:22;99949.78;;;24.32;77.46
2339;BME280;1180;51.438;6.978;2023-06-19T08:31:48;99953.81;;;24.57;76.86
2339;BME280;1180;51.438;6.978;2023-06-19T08:34:13;99939.97;;;24.70;75.09
2339;BME280;1180;51.438;6.978;2023-06-19T08:36:39;99943.13;;;24.87;74.56
2339;BME280;1180;51.438;6.978;2023-06-19T08:39:04;99947.25;;;25.03;72.54
2339;BME280;1180;51.438;6.978;2023-06-19T08:41:30;99946.81;;;24.92;72.16
2339;BME280;1180;51.438;6.978;2023-06-19T08:43:55;99952.69;;;24.94;71.79
2339;BME280;1180;51.438;6.978;2023-06-19T08:46:20;99952.91;;;25.00;70.92
2339;BME280;1180;51.438;6.978;2023-06-19T08:48:46;99956.38;;;25.07;71.12
2339;BME280;1180;51.438;6.978;2023-06-19T08:51:12;99960.88;;;25.20;71.50
2339;BME280;1180;51.438;6.978;2023-06-19T08:53:47;99956.47;;;25.27;71.25
2339;BME280;1180;51.438;6.978;2023-06-19T08:56:13;99954.91;;;25.40;71.78
2339;BME280;1180;51.438;6.978;2023-06-19T08:58:38;99955.59;;;25.55;70.64
2339;BME280;1180;51.438;6.978;2023-06-19T09:01:04;99961.03;;;25.47;70.46
2339;BME280;1180;51.438;6.978;2023-06-19T09:03:29;99957.59;;;25.53;70.49
2339;BME280;1180;51.438;6.978;2023-06-19T09:05:54;99958.78;;;25.50;70.05
2339;BME280;1180;51.438;6.978;2023-06-19T09:08:21;99963.31;;;25.70;70.33
2339;BME280;1180;51.438;6.978;2023-06-19T09:13:25;99958.66;;;25.72;69.60
2339;BME280;1180;51.438;6.978;2023-06-19T09:16:02;99960.09;;;25.81;68.89
2339;BME280;1180;51.438;6.978;2023-06-19T09:18:41;99962.13;;;25.79;68.67
2339;BME280;1180;51.438;6.978;2023-06-19T09:21:17;99957.72;;;25.87;69.66
2339;BME280;1180;51.438;6.978;2023-06-19T09:23:43;99965.59;;;26.00;69.90
2339;BME280;1180;51.438;6.978;2023-06-19T09:26:09;99966.63;;;26.13;69.50
2339;BME280;1180;51.438;6.978;2023-06-19T09:28:40;99969.50;;;26.24;68.29
2339;BME280;1180;51.438;6.978;2023-06-19T09:31:07;99965.66;;;26.34;68.02
2339;BME280;1180;51.438;6.978;2023-06-19T09:33:33;99971.75;;;26.41;65.96
2339;BME280;1180;51.438;6.978;2023-06-19T09:36:00;99974.56;;;26.46;65.66
2339;BME280;1180;51.438;6.978;2023-06-19T09:38:31;99971.94;;;26.39;63.30
2339;BME280;1180;51.438;6.978;2023-06-19T09:41:00;99969.50;;;26.31;64.65
2339;BME280;1180;51.438;6.978;2023-06-19T09:43:43;99977.78;;;26.42;65.12
2339;BME280;1180;51.438;6.978;2023-06-19T09:46:10;99977.59;;;26.57;65.16
2339;BME280;1180;51.438;6.978;2023-06-19T09:48:43;99973.34;;;26.62;64.17
2339;BME280;1180;51.438;6.978;2023-06-19T09:51:18;99976.56;;;26.64;63.38
2339;BME280;1180;51.438;6.978;2023-06-19T09:53:49;99978.19;;;26.72;62.38
2339;BME280;1180;51.438;6.978;2023-06-19T09:56:15;99980.41;;;26.62;62.72
2339;BME280;1180;51.438;6.978;2023-06-19T09:58:44;99983.47;;;26.65;62.58
2339;BME280;1180;51.438;6.978;2023-06-19T10:01:11;99987.91;;;26.65;63.00
2339;BME280;1180;51.438;6.978;2023-06-19T10:03:37;99977.59;;;26.70;63.93
2339;BME280;1180;51.438;6.978;2023-06-19T10:06:03;99984.06;;;26.74;63.61
2339;BME280;1180;51.438;6.978;2023-06-19T10:08:31;99988.91;;;26.91;62.73
2339;BME280;1180;51.438;6.978;2023-06-19T10:10:58;99998.84;;;26.75;60.34
2339;BME280;1180;51.438;6.978;2023-06-19T10:13:31;99984.47;;;26.85;60.61
2339;BME280;1180;51.438;6.978;2023-06-19T10:15:57;99988.06;;;27.10;61.51
2339;BME280;1180;51.438;6.978;2023-06-19T10:18:22;99990.84;;;27.29;60.85
2339;BME280;1180;51.438;6.978;2023-06-19T10:20:50;99990.03;;;27.22;59.52
2339;BME280;1180;51.438;6.978;2023-06-19T10:23:20;99995.47;;;27.34;58.58
2339;BME280;1180;51.438;6.978;2023-06-19T10:26:08;100003.16;;;27.42;58.62
2339;BME280;1180;51.438;6.978;2023-06-19T10:28:33;99991.41;;;27.51;58.44
2339;BME280;1180;51.438;6.978;2023-06-19T10:31:01;99983.59;;;27.70;58.57
2339;BME280;1180;51.438;6.978;2023-06-19T10:33:32;99988.16;;;27.88;57.31
2339;BME280;1180;51.438;6.978;2023-06-19T10:36:17;99982.88;;;27.88;54.00
2339;BME280;1180;51.438;6.978;2023-06-19T10:38:45;99985.97;;;27.78;56.41
2339;BME280;1180;51.438;6.978;2023-06-19T10:41:21;99985.19;;;27.78;55.13
2339;BME280;1180;51.438;6.978;2023-06-19T10:46:23;99985.16;;;27.85;53.33
2339;BME280;1180;51.438;6.978;2023-06-19T10:48:50;99980.63;;;27.92;52.96
2339;BME280;1180;51.438;6.978;2023-06-19T10:51:19;99969.22;;;27.98;53.72
2339;BME280;1180;51.438;6.978;2023-06-19T10:53:44;99968.16;;;28.06;53.09
2339;BME280;1180;51.438;6.978;2023-06-19T10:56:09;99983.19;;;28.05;53.36
2339;BME280;1180;51.438;6.978;2023-06-19T10:58:35;99989.75;;;27.89;52.55
2339;BME280;1180;51.438;6.978;2023-06-19T11:01:00;99968.03;;;27.62;51.71
2339;BME280;1180;51.438;6.978;2023-06-19T11:03:26;99968.97;;;27.74;53.46
2339;BME280;1180;51.438;6.978;2023-06-19T11:05:51;99969.34;;;27.85;51.91
2339;BME280;1180;51.438;6.978;2023-06-19T11:08:19;99974.53;;;27.91;50.86
2339;BME280;1180;51.438;6.978;2023-06-19T11:10:44;99974.34;;;27.93;52.09
2339;BME280;1180;51.438;6.978;2023-06-19T11:13:15;99964.34;;;28.02;51.07
2339;BME280;1180;51.438;6.978;2023-06-19T11:15:41;99969.94;;;28.12;51.74
2339;BME280;1180;51.438;6.978;2023-06-19T11:18:07;99972.34;;;28.14;51.52
2339;BME280;1180;51.438;6.978;2023-06-19T11:23:15;99974.28;;;28.32;51.16
2339;BME280;1180;51.438;6.978;2023-06-19T11:25:41;99963.94;;;28.30;51.54
2339;BME280;1180;51.438;6.978;2023-06-19T11:28:13;99964.06;;;28.42;52.18
2339;BME280;1180;51.438;6.978;2023-06-19T11:30:39;99956.75;;;28.63;51.86
2339;BME280;1180;51.438;6.978;2023-06-19T11:33:21;99958.69;;;28.74;52.04
2339;BME280;1180;51.438;6.978;2023-06-19T11:35:51;99953.94;;;28.83;51.25
2339;BME280;1180;51.438;6.978;2023-06-19T11:38:22;99958.22;;;28.59;49.81
2339;BME280;1180;51.438;6.978;2023-06-19T11:40:49;99954.69;;;28.65;49.41
2339;BME280;1180;51.438;6.978;2023-06-19T11:43:30;99948.28;;;28.79;50.08
2339;BME280;1180;51.438;6.978;2023-06-19T11:46:03;99956.84;;;28.75;48.17
2339;BME280;1180;51.438;6.978;2023-06-19T11:48:29;99965.78;;;28.74;50.54
2339;BME280;1180;51.438;6.978;2023-06-19T11:50:55;99959.81;;;28.85;49.72
2339;BME280;1180;51.438;6.978;2023-06-19T11:53:21;99962.81;;;29.07;49.79
2339;BME280;1180;51.438;6.978;2023-06-19T11:55:47;99956.84;;;29.12;48.79
2339;BME280;1180;51.438;6.978;2023-06-19T11:58:12;99958.13;;;29.09;48.54
2339;BME280;1180;51.438;6.978;2023-06-19T12:00:40;99966.97;;;29.15;47.09
2339;BME280;1180;51.438;6.978;2023-06-19T12:03:06;99960.16;;;29.45;47.41
2339;BME280;1180;51.438;6.978;2023-06-19T12:05:32;99958.84;;;29.66;46.15
2339;BME280;1180;51.438;6.978;2023-06-19T12:07:57;99962.25;;;29.97;46.27
2339;BME280;1180;51.438;6.978;2023-06-19T12:10:23;99956.31;;;30.14;46.31
2339;BME280;1180;51.438;6.978;2023-06-19T12:12:48;99952.09;;;30.24;46.34
2339;BME280;1180;51.438;6.978;2023-06-19T12:15:14;99966.75;;;29.96;45.64
2339;BME280;1180;51.438;6.978;2023-06-19T12:17:39;99961.38;;;30.03;46.03
2339;BME280;1180;51.438;6.978;2023-06-19T12:20:05;99957.28;;;30.31;45.98
2339;BME280;1180;51.438;6.978;2023-06-19T12:22:32;99962.00;;;30.41;45.28
2339;BME280;1180;51.438;6.978;2023-06-19T12:24:58;99957.84;;;30.21;44.75
2339;BME280;1180;51.438;6.978;2023-06-19T12:27:24;99953.81;;;30.31;45.14
2339;BME280;1180;51.438;6.978;2023-06-19T12:29:49;99952.44;;;30.40;45.41
2339;BME280;1180;51.438;6.978;2023-06-19T12:32:15;99949.81;;;30.52;45.02
2339;BME280;1180;51.438;6.978;2023-06-19T12:34:40;99952.69;;;30.62;44.73
2339;BME280;1180;51.438;6.978;2023-06-19T12:37:14;99958.00;;;30.62;43.03
2339;BME280;1180;51.438;6.978;2023-06-19T12:39:43;99956.72;;;30.53;43.25
2339;BME280;1180;51.438;6.978;2023-06-19T12:42:09;99960.59;;;30.50;43.81
2339;BME280;1180;51.438;6.978;2023-06-19T12:44:38;99957.53;;;30.65;44.34
2339;BME280;1180;51.438;6.978;2023-06-19T12:47:04;99962.91;;;30.59;43.89
2339;BME280;1180;51.438;6.978;2023-06-19T12:49:30;99964.78;;;30.70;42.41
2339;BME280;1180;51.438;6.978;2023-06-19T12:51:55;99956.81;;;30.46;42.83
2339;BME280;1180;51.438;6.978;2023-06-19T12:54:21;99958.78;;;30.39;42.69
2339;BME280;1180;51.438;6.978;2023-06-19T12:56:46;99958.31;;;30.42;42.84
2339;BME280;1180;51.438;6.978;2023-06-19T12:59:11;99961.06;;;30.35;43.68
2339;BME280;1180;51.438;6.978;2023-06-19T13:01:37;99961.88;;;30.36;44.66
2339;BME280;1180;51.438;6.978;2023-06-19T13:04:02;99957.59;;;30.47;44.58
2339;BME280;1180;51.438;6.978;2023-06-19T13:06:27;99969.25;;;30.58;44.90
2339;BME280;1180;51.438;6.978;2023-06-19T13:08:53;99967.66;;;30.68;43.95
2339;BME280;1180;51.438;6.978;2023-06-19T13:11:18;99961.22;;;30.64;43.75
2339;BME280;1180;51.438;6.978;2023-06-19T13:13:44;99965.25;;;30.67;44.51
2339;BME280;1180;51.438;6.978;2023-06-19T13:16:09;99956.38;;;30.61;43.86
2339;BME280;1180;51.438;6.978;2023-06-19T13:18:35;99949.09;;;30.57;44.50
2339;BME280;1180;51.438;6.978;2023-06-19T13:21:00;99949.59;;;30.65;42.75
2339;BME280;1180;51.438;6.978;2023-06-19T13:23:25;99951.97;;;30.79;42.75
2339;BME280;1180;51.438;6.978;2023-06-19T13:25:51;99950.50;;;30.71;42.55
2339;BME280;1180;51.438;6.978;2023-06-19T13:28:16;99949.22;;;30.74;43.46